Time;durP1;ratioP1;P1;durP2;ratioP2;P2;SDS_P1;SDS_P2;PMS_P1;PMS_P2;Temp;Humidity;BMP_temperature;BMP_pressure;BME280_temperature;BME280_humidity;BME280_pressure;Samples;Min_cycle;Max_cycle;Signal;HPM_P1;HPM_P2
2023/03/21 00:01:42;;;;;;;;;16.67;13.33;;;;;18.37;100.00;101451.50;4963033;28;45345;-77
2023/03/21 00:04:08;;;;;;;;;17.67;13.33;;;;;18.20;100.00;101434.25;4967896;28;45384;-77
2023/03/21 00:06:35;;;;;;;;;14.33;14.33;;;;;18.37;100.00;101451.50;4963193;28;45353;-77
2023/03/21 00:09:00;;;;;;;;;16.00;13.33;;;;;18.32;100.00;101453.94;4967841;28;46676;-77
2023/03/21 00:11:25;;;;;;;;;16.33;14.67;;;;;18.35;100.00;101453.56;4962672;28;45376;-77
2023/03/21 00:13:52;;;;;;;;;17.33;16.00;;;;;18.36;100.00;101444.28;4972778;28;45369;-77
2023/03/21 00:16:18;;;;;;;;;15.00;12.00;;;;;18.33;100.00;101439.16;4975894;28;45468;-77
2023/03/21 00:18:51;;;;;;;;;15.00;13.00;;;;;18.36;100.00;101440.69;4966079;28;46556;-77
2023/03/21 00:21:19;;;;;;;;;12.33;12.00;;;;;18.36;100.00;101446.19;4977498;28;45420;-76
2023/03/21 00:23:45;;;;;;;;;12.33;12.33;;;;;18.34;100.00;101446.34;4965736;28;45441;-77
2023/03/21 00:26:11;;;;;;;;;13.67;12.33;;;;;18.27;100.00;101434.38;4965877;28;45589;-76
2023/03/21 00:28:38;;;;;;;;;14.67;13.33;;;;;18.28;100.00;101438.84;4967897;28;46155;-77
2023/03/21 00:31:05;;;;;;;;;20.67;13.67;;;;;18.32;100.00;101423.69;4970466;28;45318;-77
2023/03/21 00:33:30;;;;;;;;;16.00;14.00;;;;;18.44;100.00;101432.38;4966999;28;45327;-77
2023/03/21 00:35:56;;;;;;;;;17.00;14.67;;;;;18.41;100.00;101428.06;4968800;28;45415;-77
2023/03/21 00:38:23;;;;;;;;;14.33;14.00;;;;;18.40;100.00;101423.63;4968254;28;45590;-77
2023/03/21 00:40:49;;;;;;;;;19.00;15.00;;;;;18.39;100.00;101432.94;4965987;28;45293;-75
2023/03/21 00:43:17;;;;;;;;;18.00;13.33;;;;;18.18;100.00;101418.97;4965034;28;45420;-75
2023/03/21 00:45:43;;;;;;;;;20.33;15.33;;;;;18.27;100.00;101432.47;4964435;28;45528;-75
2023/03/21 00:48:09;;;;;;;;;15.33;13.33;;;;;18.21;100.00;101430.44;4965643;28;46769;-76
2023/03/21 00:50:36;;;;;;;;;12.67;12.67;;;;;18.16;100.00;101426.53;4964875;28;45392;-76
2023/03/21 00:53:01;;;;;;;;;13.33;13.00;;;;;17.75;100.00;101426.75;4978929;28;45517;-77
2023/03/21 00:55:26;;;;;;;;;10.00;10.00;;;;;18.00;100.00;101421.13;4960544;28;45174;-77
2023/03/21 00:57:52;;;;;;;;;11.33;9.33;;;;;18.08;100.00;101413.69;4970979;28;45455;-77
2023/03/21 01:00:18;;;;;;;;;14.67;13.00;;;;;18.07;100.00;101411.13;4973377;28;52506;-77
2023/03/21 01:02:56;;;;;;;;;13.67;12.67;;;;;18.13;100.00;101415.88;5002284;28;45296;-77
2023/03/21 01:08:15;;;;;;;;;18.33;15.00;;;;;18.03;100.00;101410.66;4969938;28;45529;-76
2023/03/21 01:10:43;;;;;;;;;12.33;12.33;;;;;17.94;100.00;101403.47;4973942;28;45515;-76
2023/03/21 01:13:11;;;;;;;;;15.00;10.33;;;;;17.92;100.00;101404.69;4972630;28;45467;-75
2023/03/21 01:15:42;;;;;;;;;13.00;13.00;;;;;17.94;100.00;101389.72;4976642;28;45365;-76
2023/03/21 01:18:08;;;;;;;;;15.33;12.00;;;;;17.96;100.00;101403.28;4967502;28;47071;-76
2023/03/21 01:20:33;;;;;;;;;11.33;8.33;;;;;17.84;100.00;101400.94;4975730;28;45421;-76
2023/03/21 01:22:59;;;;;;;;;14.67;12.00;;;;;17.71;100.00;101395.16;4968038;28;45396;-76
2023/03/21 01:25:25;;;;;;;;;11.33;11.33;;;;;17.71;100.00;101394.31;4972287;28;45340;-76
2023/03/21 01:27:50;;;;;;;;;16.00;15.00;;;;;17.75;100.00;101392.94;4970218;28;47120;-76
2023/03/21 01:30:15;;;;;;;;;15.00;13.33;;;;;17.76;100.00;101389.97;4966309;28;45933;-76
2023/03/21 01:32:41;;;;;;;;;14.33;12.67;;;;;17.79;100.00;101375.88;4966957;28;45455;-75
2023/03/21 01:35:06;;;;;;;;;15.67;15.00;;;;;17.51;100.00;101378.22;4969572;28;45615;-76
2023/03/21 01:37:32;;;;;;;;;16.00;14.33;;;;;17.60;100.00;101389.19;4966796;28;46269;-77
2023/03/21 01:39:58;;;;;;;;;18.67;16.33;;;;;17.42;100.00;101383.94;4968306;28;45322;-77
2023/03/21 01:42:23;;;;;;;;;15.33;13.33;;;;;17.49;100.00;101376.69;4968406;28;45914;-76
2023/03/21 01:44:57;;;;;;;;;15.33;14.67;;;;;17.58;100.00;101383.88;4968904;28;45215;-77
2023/03/21 01:47:23;;;;;;;;;12.67;12.33;;;;;17.43;100.00;101377.41;4998409;28;47690;-77
2023/03/21 01:49:51;;;;;;;;;15.00;14.00;;;;;17.23;100.00;101367.88;4969748;28;45377;-75
2023/03/21 01:52:22;;;;;;;;;11.33;11.33;;;;;17.29;100.00;101386.38;4967629;28;45492;-76
2023/03/21 01:54:48;;;;;;;;;16.33;14.00;;;;;17.16;100.00;101372.34;4962114;28;45466;-75
2023/03/21 01:57:32;;;;;;;;;16.67;11.33;;;;;17.26;100.00;101378.47;4967511;28;45484;-75
2023/03/21 02:00:01;;;;;;;;;11.00;11.00;;;;;17.35;100.00;101377.44;4978337;28;45376;-76
2023/03/21 02:02:30;;;;;;;;;13.33;10.00;;;;;17.13;100.00;101352.44;4967854;28;45593;-75
2023/03/21 02:04:58;;;;;;;;;17.67;12.33;;;;;17.10;100.00;101363.75;4969932;28;45619;-75
2023/03/21 02:07:34;;;;;;;;;14.33;11.00;;;;;17.12;100.00;101367.19;4965378;28;47835;-75
2023/03/21 02:10:03;;;;;;;;;14.00;11.33;;;;;17.15;100.00;101348.66;4967683;28;45301;-75
2023/03/21 02:12:30;;;;;;;;;14.33;10.33;;;;;17.38;100.00;101357.88;4967666;28;45467;-75
2023/03/21 02:14:56;;;;;;;;;12.00;10.33;;;;;17.47;100.00;101359.50;4968043;28;45408;-76
2023/03/21 02:17:25;;;;;;;;;12.67;11.33;;;;;17.39;100.00;101357.66;4966663;28;45325;-76
2023/03/21 02:20:12;;;;;;;;;9.33;9.33;;;;;17.41;100.00;101352.84;4965953;28;45449;-76
2023/03/21 02:22:59;;;;;;;;;8.67;8.67;;;;;17.38;100.00;101355.13;4963538;28;45433;-76
2023/03/21 02:25:48;;;;;;;;;9.33;8.67;;;;;17.26;100.00;101340.03;4967710;28;45809;-76
2023/03/21 02:28:22;;;;;;;;;9.33;7.00;;;;;17.26;100.00;101340.91;4964753;28;45570;-76
2023/03/21 02:31:04;;;;;;;;;9.33;7.67;;;;;17.41;100.00;101330.88;4968244;28;45414;-76
2023/03/21 02:34:05;;;;;;;;;10.67;8.67;;;;;17.46;100.00;101339.44;4963674;28;45394;-76
2023/03/21 02:36:48;;;;;;;;;8.33;8.33;;;;;17.46;100.00;101338.56;4958288;28;45443;-76
2023/03/21 02:39:24;;;;;;;;;9.00;7.00;;;;;17.33;100.00;101330.91;4996244;28;47121;-76
2023/03/21 02:42:00;;;;;;;;;14.33;12.00;;;;;17.20;100.00;101329.75;4965244;28;45317;-76
2023/03/21 02:44:45;;;;;;;;;7.00;7.00;;;;;17.24;100.00;101328.41;4966689;28;45348;-75
2023/03/21 02:47:18;;;;;;;;;9.67;9.67;;;;;17.30;100.00;101323.03;4968206;28;45562;-75
2023/03/21 02:50:13;;;;;;;;;8.67;8.67;;;;;17.35;100.00;101317.00;4960024;28;46965;-76
2023/03/21 02:52:41;;;;;;;;;9.67;7.67;;;;;17.28;100.00;101321.50;4978070;28;45318;-76
2023/03/21 02:55:14;;;;;;;;;8.67;8.67;;;;;17.28;100.00;101311.38;4963989;28;45381;-75
2023/03/21 02:57:43;;;;;;;;;7.67;7.67;;;;;17.27;100.00;101330.78;4967043;28;45285;-75
2023/03/21 03:00:14;;;;;;;;;7.67;6.33;;;;;17.29;100.00;101331.44;4967135;28;45329;-75
2023/03/21 03:02:40;;;;;;;;;6.00;6.00;;;;;17.23;100.00;101323.94;4966482;28;45577;-75
2023/03/21 03:05:15;;;;;;;;;8.00;8.00;;;;;17.17;100.00;101324.66;4963973;28;45983;-75
2023/03/21 03:08:18;;;;;;;;;6.00;6.00;;;;;17.19;100.00;101328.03;4968395;28;45445;-75
2023/03/21 03:11:11;;;;;;;;;7.00;5.67;;;;;17.17;100.00;101324.66;4976056;28;45559;-75
2023/03/21 03:14:01;;;;;;;;;6.00;6.00;;;;;17.19;100.00;101317.91;4961407;28;45385;-76
2023/03/21 03:16:35;;;;;;;;;6.33;6.33;;;;;17.17;100.00;101308.16;4965894;28;45427;-76
2023/03/21 03:19:03;;;;;;;;;4.67;4.67;;;;;17.21;100.00;101313.13;4966215;28;45453;-75
2023/03/21 03:21:48;;;;;;;;;6.33;5.00;;;;;17.12;100.00;101309.53;4982393;28;48173;-76
2023/03/21 03:24:50;;;;;;;;;6.67;5.00;;;;;17.16;100.00;101311.94;5000162;28;45410;-76
2023/03/21 03:27:23;;;;;;;;;6.33;6.33;;;;;17.15;100.00;101304.75;4955073;28;45616;-76
2023/03/21 03:29:50;;;;;;;;;4.67;4.67;;;;;17.22;100.00;101300.25;4963949;28;45262;-76
2023/03/21 03:32:25;;;;;;;;;4.33;4.00;;;;;17.18;100.00;101293.38;4997982;28;45578;-75
2023/03/21 03:34:57;;;;;;;;;5.00;3.33;;;;;17.18;100.00;101307.09;4959854;28;45638;-75
2023/03/21 03:37:26;;;;;;;;;6.00;5.00;;;;;17.15;99.25;101305.59;4979170;28;45355;-75
2023/03/21 03:40:21;;;;;;;;;6.67;5.67;;;;;17.08;98.94;101297.22;4967011;28;45388;-75
2023/03/21 03:42:56;;;;;;;;;4.00;4.00;;;;;17.04;98.15;101273.88;4970206;28;46903;-75
2023/03/21 03:45:28;;;;;;;;;4.33;4.33;;;;;17.13;98.07;101289.28;4966801;28;45397;-76
2023/03/21 03:48:05;;;;;;;;;6.00;5.00;;;;;17.11;97.69;101280.38;4966099;28;45415;-76
2023/03/21 03:50:36;;;;;;;;;4.33;4.33;;;;;17.19;96.72;101284.13;4963104;28;45426;-76
2023/03/21 03:53:07;;;;;;;;;3.67;3.67;;;;;17.24;96.61;101293.53;4965322;28;45450;-75
2023/03/21 03:55:33;;;;;;;;;5.33;4.00;;;;;17.23;96.11;101296.47;4966612;28;45382;-75
2023/03/21 03:58:00;;;;;;;;;4.67;4.67;;;;;17.12;95.75;101286.72;4966038;28;45492;-75
2023/03/21 04:00:26;;;;;;;;;5.00;5.00;;;;;17.16;95.86;101279.84;4967359;28;45375;-75
2023/03/21 04:02:52;;;;;;;;;3.67;3.67;;;;;17.17;95.86;101277.97;4964237;28;45847;-75
2023/03/21 04:05:20;;;;;;;;;6.00;4.33;;;;;17.11;93.77;101282.25;4965480;28;45370;-75
2023/03/21 04:07:47;;;;;;;;;3.33;3.33;;;;;16.99;94.34;101257.09;4963268;28;45577;-76
2023/03/21 04:10:13;;;;;;;;;3.00;3.00;;;;;17.08;94.91;101283.50;4965511;28;45551;-75
2023/03/21 04:12:39;;;;;;;;;5.33;3.00;;;;;16.77;93.01;101289.94;4962272;28;47910;-76
2023/03/21 04:15:05;;;;;;;;;5.33;4.00;;;;;16.69;94.80;101304.53;4965001;28;45630;-76
2023/03/21 04:17:31;;;;;;;;;4.00;4.00;;;;;16.54;95.22;101300.75;4962561;28;45307;-76
2023/03/21 04:19:57;;;;;;;;;3.67;3.67;;;;;16.53;96.32;101304.50;4964933;28;45389;-75
2023/03/21 04:22:23;;;;;;;;;5.33;3.33;;;;;16.61;95.54;101319.13;4964248;28;45453;-75
2023/03/21 04:24:48;;;;;;;;;6.67;5.00;;;;;16.59;94.43;101314.78;4962777;28;45387;-76
2023/03/21 04:27:14;;;;;;;;;8.67;4.00;;;;;16.56;95.01;101310.53;4965327;28;45288;-76
2023/03/21 04:29:39;;;;;;;;;6.33;4.33;;;;;16.61;95.33;101301.78;4964582;28;45337;-76
2023/03/21 04:32:14;;;;;;;;;4.00;4.00;;;;;16.78;95.33;101303.47;4961497;28;47495;-76
2023/03/21 04:34:42;;;;;;;;;3.67;3.67;;;;;16.81;93.57;101297.63;4965394;28;45277;-76
2023/03/21 04:37:10;;;;;;;;;4.67;4.67;;;;;16.82;95.52;101298.47;4975424;28;45322;-76
2023/03/21 04:39:37;;;;;;;;;7.33;6.00;;;;;16.81;94.07;101280.31;4965333;28;45591;-76
2023/03/21 04:42:03;;;;;;;;;5.33;4.00;;;;;16.98;94.67;101293.81;4975610;28;47753;-76
2023/03/21 04:44:28;;;;;;;;;5.33;5.33;;;;;17.01;94.76;101274.25;4975010;28;45332;-76
2023/03/21 04:46:53;;;;;;;;;7.00;6.00;;;;;17.05;93.39;101285.72;4977924;28;45163;-76
2023/03/21 04:49:20;;;;;;;;;5.00;5.00;;;;;17.02;97.33;101284.16;5004605;28;45518;-76
2023/03/21 04:51:45;;;;;;;;;3.67;3.67;;;;;17.06;99.27;101271.81;4973751;28;45600;-76
2023/03/21 04:54:12;;;;;;;;;5.67;4.00;;;;;17.02;96.62;101291.59;4966816;28;46010;-76
2023/03/21 04:56:38;;;;;;;;;4.67;4.00;;;;;16.96;95.58;101290.38;4967109;28;45262;-76
2023/03/21 04:59:10;;;;;;;;;7.00;5.67;;;;;16.94;95.76;101283.38;4962047;28;45524;-76
2023/03/21 05:01:36;;;;;;;;;4.67;4.00;;;;;16.87;96.37;101277.75;4967759;28;46297;-75
2023/03/21 05:04:03;;;;;;;;;6.33;4.00;;;;;16.97;99.02;101289.34;4956708;28;45932;-75
2023/03/21 05:06:28;;;;;;;;;4.33;4.00;;;;;16.97;100.00;101281.13;4967137;28;45285;-75
2023/03/21 05:08:58;;;;;;;;;5.00;4.00;;;;;16.93;100.00;101295.38;4961671;28;45558;-75
2023/03/21 05:11:24;;;;;;;;;4.33;4.33;;;;;16.70;100.00;101279.66;4996845;28;47339;-75
2023/03/21 05:13:49;;;;;;;;;4.00;4.00;;;;;16.50;100.00;101271.97;4963259;28;45320;-74
2023/03/21 05:16:15;;;;;;;;;5.00;5.00;;;;;16.35;100.00;101258.97;4964611;28;45362;-75
2023/03/21 05:18:41;;;;;;;;;5.33;5.00;;;;;16.59;100.00;101284.59;4977587;28;45421;-75
2023/03/21 05:21:09;;;;;;;;;5.00;5.00;;;;;16.69;100.00;101277.09;4966483;28;45530;-75
2023/03/21 05:23:37;;;;;;;;;5.67;5.67;;;;;16.76;100.00;101271.75;4963043;28;45403;-75
2023/03/21 05:26:07;;;;;;;;;4.33;4.33;;;;;16.73;100.00;101279.28;4968172;28;45456;-75
2023/03/21 05:28:35;;;;;;;;;4.00;4.00;;;;;16.82;100.00;101282.88;4957875;28;45495;-76
2023/03/21 05:31:03;;;;;;;;;6.00;6.00;;;;;16.64;100.00;101279.50;4970237;28;46167;-75
2023/03/21 05:33:29;;;;;;;;;7.67;5.33;;;;;16.64;100.00;101285.00;4968913;28;45476;-76
2023/03/21 05:35:54;;;;;;;;;8.33;5.67;;;;;16.37;100.00;101277.94;4954571;28;45291;-75
2023/03/21 05:38:20;;;;;;;;;7.67;6.00;;;;;16.51;100.00;101279.16;4971754;28;45320;-75
2023/03/21 05:40:49;;;;;;;;;5.33;5.33;;;;;16.63;100.00;101273.16;4967674;28;45530;-74
2023/03/21 05:43:15;;;;;;;;;9.67;8.00;;;;;16.40;100.00;101274.88;4969741;28;45561;-74
2023/03/21 05:45:40;;;;;;;;;4.67;4.67;;;;;16.18;100.00;101273.69;4962151;28;45432;-76
2023/03/21 05:48:06;;;;;;;;;5.33;5.00;;;;;16.18;100.00;101272.84;4969765;28;45552;-74
2023/03/21 05:50:32;;;;;;;;;6.00;5.00;;;;;16.33;100.00;101277.47;4969540;28;45423;-75
2023/03/21 05:52:57;;;;;;;;;6.00;5.00;;;;;16.33;100.00;101282.09;4975427;28;45384;-74
2023/03/21 05:55:22;;;;;;;;;5.67;5.00;;;;;16.47;100.00;101289.59;4960775;28;45347;-74
2023/03/21 05:57:48;;;;;;;;;4.33;4.00;;;;;16.45;100.00;101277.09;4974403;28;45339;-75
2023/03/21 06:00:14;;;;;;;;;9.00;5.67;;;;;16.42;100.00;101282.94;4973410;28;45515;-75
2023/03/21 06:02:39;;;;;;;;;8.33;5.33;;;;;16.35;100.00;101272.66;4973814;28;45372;-75
2023/03/21 06:05:05;;;;;;;;;5.00;5.00;;;;;16.29;100.00;101276.06;4975789;28;45462;-75
2023/03/21 06:07:31;;;;;;;;;7.00;5.00;;;;;16.29;100.00;101269.75;4973692;28;45485;-73
2023/03/21 06:09:57;;;;;;;;;6.67;6.33;;;;;16.38;100.00;101285.16;4967915;28;47166;-76
2023/03/21 06:12:22;;;;;;;;;4.67;4.67;;;;;16.44;100.00;101265.25;5001317;28;45446;-74
2023/03/21 06:14:47;;;;;;;;;8.67;7.67;;;;;16.47;100.00;101266.81;4976893;28;45360;-73
2023/03/21 06:17:13;;;;;;;;;9.67;8.00;;;;;16.47;100.00;101270.41;4972726;28;45458;-76
2023/03/21 06:19:38;;;;;;;;;2.00;0.33;;;;;16.44;100.00;101272.66;4971318;28;45320;-74
2023/03/21 06:22:03;;;;;;;;;8.33;7.00;;;;;16.33;100.00;101269.22;4976059;28;45579;-75
2023/03/21 06:24:29;;;;;;;;;8.00;8.00;;;;;16.15;100.00;101290.47;4972025;28;45424;-74
2023/03/21 06:26:54;;;;;;;;;7.00;7.00;;;;;16.24;100.00;101289.47;4977900;28;45429;-75
2023/03/21 06:29:20;;;;;;;;;6.00;5.00;;;;;16.34;100.00;101286.53;4964772;28;46024;-74
2023/03/21 06:31:45;;;;;;;;;7.00;7.00;;;;;16.28;100.00;101289.97;4979296;28;45304;-76
2023/03/21 06:34:11;;;;;;;;;9.33;8.00;;;;;16.29;100.00;101291.69;4965954;28;45472;-74
2023/03/21 06:36:37;;;;;;;;;9.00;7.00;;;;;16.24;100.00;101281.22;4970837;28;45379;-75
2023/03/21 06:39:03;;;;;;;;;10.33;10.33;;;;;16.37;100.00;101286.19;4968385;28;45624;-74
2023/03/21 06:41:29;;;;;;;;;24.50;23.50;;;;;16.34;100.00;101284.66;5010064;28;45349;-75
2023/03/21 06:43:54;;;;;;;;;8.67;8.67;;;;;16.31;100.00;101279.50;4966050;28;45134;-76
2023/03/21 06:46:19;;;;;;;;;9.67;8.00;;;;;16.33;100.00;101258.25;4971724;28;45348;-75
2023/03/21 06:48:45;;;;;;;;;7.00;7.00;;;;;16.42;100.00;101269.22;4961017;28;46228;-75
2023/03/21 06:51:12;;;;;;;;;12.67;11.67;;;;;16.43;100.00;101265.47;4970418;28;45598;-75
2023/03/21 06:53:38;;;;;;;;;12.00;10.67;;;;;16.26;100.00;101265.47;4966679;28;45501;-75
2023/03/21 06:56:04;;;;;;;;;8.00;8.00;;;;;16.39;100.00;101261.34;4966997;28;45404;-75
2023/03/21 06:58:30;;;;;;;;;9.33;7.00;;;;;16.45;100.00;101264.22;4963730;28;45457;-75
2023/03/21 07:00:58;;;;;;;;;6.33;6.33;;;;;16.54;100.00;101246.75;4971916;28;45322;-75
2023/03/21 07:03:24;;;;;;;;;9.33;7.67;;;;;16.59;100.00;101254.44;4963891;28;45400;-76
2023/03/21 07:05:49;;;;;;;;;9.33;7.67;;;;;16.43;100.00;101260.84;4964950;28;45331;-76
2023/03/21 07:08:16;;;;;;;;;12.00;12.00;;;;;16.48;100.00;101255.66;4966139;28;45342;-76
2023/03/21 07:10:43;;;;;;;;;14.67;12.00;;;;;16.58;100.00;101241.78;4964075;28;45657;-75
2023/03/21 07:13:09;;;;;;;;;10.00;9.00;;;;;16.59;100.00;101237.97;4965374;28;45501;-77
2023/03/21 07:15:37;;;;;;;;;7.33;7.33;;;;;16.71;100.00;101242.97;5000482;28;45435;-75
2023/03/21 07:18:06;;;;;;;;;13.00;13.00;;;;;16.70;100.00;101248.63;4964128;28;45422;-77
2023/03/21 07:20:32;;;;;;;;;10.00;7.00;;;;;16.93;100.00;101241.34;4965217;28;45482;-75
2023/03/21 07:22:57;;;;;;;;;13.67;9.67;;;;;17.11;100.00;101233.69;4976174;28;45448;-75
2023/03/21 07:25:23;;;;;;;;;13.00;9.33;;;;;17.20;100.00;101230.91;4980725;28;45453;-75
2023/03/21 07:27:49;;;;;;;;;10.33;7.33;;;;;17.29;100.00;101238.06;4969249;28;45559;-74
2023/03/21 07:30:15;;;;;;;;;7.33;7.00;;;;;17.34;100.00;101252.13;4964146;28;45519;-75
2023/03/21 07:32:40;;;;;;;;;13.00;10.00;;;;;17.19;100.00;101259.41;4974244;28;45449;-76
2023/03/21 07:35:09;;;;;;;;;12.00;10.67;;;;;17.07;100.00;101257.06;4965265;28;45485;-74
2023/03/21 07:37:35;;;;;;;;;11.67;7.00;;;;;17.12;100.00;101240.91;4976436;28;45438;-75
2023/03/21 07:40:00;;;;;;;;;13.00;10.33;;;;;17.28;100.00;101256.44;4973480;28;45432;-75
2023/03/21 07:42:26;;;;;;;;;8.00;8.00;;;;;17.29;100.00;101238.94;4972120;28;45340;-76
2023/03/21 07:44:53;;;;;;;;;12.67;12.67;;;;;17.50;100.00;101232.78;4995705;28;45311;-75
2023/03/21 07:47:19;;;;;;;;;14.00;14.00;;;;;17.55;100.00;101224.84;4960811;28;46119;-74
2023/03/21 07:49:45;;;;;;;;;10.67;10.67;;;;;17.65;100.00;101233.75;4961374;28;45353;-74
2023/03/21 07:52:10;;;;;;;;;14.00;13.00;;;;;17.70;100.00;101238.69;4969974;28;45768;-75
2023/03/21 07:54:36;;;;;;;;;17.67;14.67;;;;;17.78;100.00;101203.75;4980318;28;45610;-74
2023/03/21 07:57:01;;;;;;;;;12.67;10.67;;;;;17.84;100.00;101178.28;4978297;28;46141;-75
2023/03/21 07:59:26;;;;;;;;;15.67;13.00;;;;;17.85;100.00;101201.97;4973443;28;45451;-76
2023/03/21 08:01:52;;;;;;;;;17.00;10.33;;;;;17.92;100.00;101182.00;4968026;28;45331;-74
2023/03/21 08:04:17;;;;;;;;;10.67;10.33;;;;;17.70;100.00;101187.34;4961912;28;45698;-75
2023/03/21 08:06:42;;;;;;;;;16.00;12.67;;;;;17.83;100.00;101212.31;4967455;28;45548;-75
2023/03/21 08:09:08;;;;;;;;;16.33;10.33;;;;;17.96;100.00;101205.34;4964722;28;45778;-75
2023/03/21 08:11:33;;;;;;;;;17.67;13.00;;;;;17.96;100.00;101213.59;4962985;28;45476;-75
2023/03/21 08:13:59;;;;;;;;;13.33;13.33;;;;;17.94;100.00;101238.50;4977333;28;45384;-75
2023/03/21 08:16:25;;;;;;;;;13.00;13.00;;;;;17.78;100.00;101241.38;4963447;28;45752;-75
2023/03/21 08:18:50;;;;;;;;;10.00;9.33;;;;;17.70;100.00;101261.53;4962219;28;46284;-75
2023/03/21 08:21:16;;;;;;;;;15.00;13.33;;;;;17.83;100.00;101267.28;4963380;28;45536;-75
2023/03/21 08:23:41;;;;;;;;;12.67;12.67;;;;;17.60;100.00;101288.38;4954659;28;45453;-74
2023/03/21 08:26:08;;;;;;;;;14.33;12.00;;;;;17.61;100.00;101276.34;4960666;28;47846;-76
2023/03/21 08:28:35;;;;;;;;;13.67;10.00;;;;;17.80;100.00;101264.91;4967458;28;45392;-76
2023/03/21 08:31:06;;;;;;;;;13.00;11.67;;;;;17.89;100.00;101271.22;5000064;28;45396;-75
2023/03/21 08:33:32;;;;;;;;;13.00;10.00;;;;;17.93;100.00;101277.19;4968148;28;45468;-75
2023/03/21 08:35:59;;;;;;;;;9.00;8.00;;;;;18.00;100.00;101262.50;4967877;28;45307;-75
2023/03/21 08:38:28;;;;;;;;;24.75;23.25;;;;;18.17;100.00;101242.09;4970884;28;45527;-76
2023/03/21 08:40:54;;;;;;;;;12.67;11.00;;;;;18.58;100.00;101231.56;4970861;28;45402;-77
2023/03/21 08:43:19;;;;;;;;;14.33;13.00;;;;;18.83;100.00;101220.28;4971142;28;45380;-75
2023/03/21 08:45:44;;;;;;;;;12.33;11.67;;;;;18.91;100.00;101218.28;4963287;28;45306;-75
2023/03/21 08:48:10;;;;;;;;;12.33;10.00;;;;;18.84;100.00;101230.25;4962541;28;45406;-77
2023/03/21 08:50:35;;;;;;;;;17.33;11.33;;;;;19.13;100.00;101255.00;4963068;28;45443;-77
2023/03/21 08:53:00;;;;;;;;;13.33;10.33;;;;;19.30;100.00;101252.88;4973001;28;45431;-74
2023/03/21 08:55:26;;;;;;;;;14.00;11.67;;;;;18.91;100.00;101247.72;4962930;28;46555;-76
2023/03/21 08:57:51;;;;;;;;;12.00;10.00;;;;;19.18;100.00;101252.53;4969579;28;45439;-75
2023/03/21 09:00:19;;;;;;;;;9.33;7.67;;;;;19.19;100.00;101248.72;4965253;28;45665;-77
2023/03/21 09:02:47;;;;;;;;;11.33;8.33;;;;;19.47;100.00;101248.03;4968211;28;45605;-74
2023/03/21 09:05:12;;;;;;;;;16.67;11.67;;;;;19.58;100.00;101251.13;4961592;28;45261;-76
2023/03/21 09:07:39;;;;;;;;;15.67;11.67;;;;;19.68;100.00;101253.56;4968234;28;45484;-76
2023/03/21 09:10:07;;;;;;;;;13.00;9.33;;;;;19.77;100.00;101266.19;4966395;28;45164;-75
2023/03/21 09:12:33;;;;;;;;;11.00;11.00;;;;;19.86;100.00;101261.41;4962584;28;45497;-75
2023/03/21 09:15:01;;;;;;;;;9.67;9.67;;;;;19.91;100.00;101259.75;4966054;28;46207;-76
2023/03/21 09:17:28;;;;;;;;;10.33;10.00;;;;;19.76;100.00;101258.94;4973920;28;45286;-76
2023/03/21 09:19:53;;;;;;;;;8.00;8.00;;;;;20.01;100.00;101259.44;4969230;28;45511;-74
2023/03/21 09:22:20;;;;;;;;;11.00;8.00;;;;;20.01;100.00;101263.03;4970888;28;45502;-74
2023/03/21 09:24:46;;;;;;;;;7.00;6.67;;;;;20.10;100.00;101266.50;4970478;28;45665;-77
2023/03/21 09:27:12;;;;;;;;;9.67;9.67;;;;;19.87;100.00;101258.41;4972928;28;45415;-75
2023/03/21 09:29:40;;;;;;;;;8.33;6.33;;;;;19.53;100.00;101261.88;4962809;28;45327;-76
2023/03/21 09:32:05;;;;;;;;;8.00;7.67;;;;;19.69;100.00;101260.78;4973114;28;45483;-76
2023/03/21 09:34:31;;;;;;;;;9.33;6.33;;;;;19.69;100.00;101239.59;4965417;28;46133;-76
2023/03/21 09:36:56;;;;;;;;;8.67;7.33;;;;;19.64;100.00;101258.63;4974777;28;45409;-75
2023/03/21 09:39:22;;;;;;;;;8.00;5.00;;;;;19.45;100.00;101261.97;4965523;28;45279;-75
2023/03/21 09:42:13;;;;;;;;;7.67;7.67;;;;;19.60;100.00;101261.94;4972047;28;45317;-76
2023/03/21 09:45:25;;;;;;;;;8.00;8.00;;;;;18.90;100.00;101260.63;4964516;28;45719;-75
2023/03/21 09:47:55;;;;;;;;;8.00;6.00;;;;;19.00;100.00;101272.19;4954950;28;45291;-75
2023/03/21 09:50:34;;;;;;;;;3.00;3.00;;;;;18.67;100.00;101268.97;4974985;28;45369;-74
2023/03/21 09:53:06;;;;;;;;;5.67;5.33;;;;;18.46;100.00;101268.81;4973283;28;45426;-76
2023/03/21 09:55:35;;;;;;;;;6.00;6.00;;;;;18.64;100.00;101263.81;4970114;28;45548;-77
2023/03/21 09:58:12;;;;;;;;;9.67;8.00;;;;;18.60;100.00;101256.16;4972355;28;45423;-76
2023/03/21 10:00:42;;;;;;;;;7.33;7.33;;;;;18.53;100.00;101258.75;4966308;28;45611;-75
2023/03/21 10:03:30;;;;;;;;;8.00;7.67;;;;;18.64;100.00;101268.47;4982001;28;45458;-74
2023/03/21 10:05:59;;;;;;;;;8.00;8.00;;;;;18.52;100.00;101259.81;4965910;28;45281;-76
2023/03/21 10:08:32;;;;;;;;;8.33;6.33;;;;;18.64;100.00;101266.56;4964579;28;45364;-76
2023/03/21 10:11:31;;;;;;;;;8.67;8.00;;;;;18.70;100.00;101258.63;4980754;28;45402;-76
2023/03/21 10:14:03;;;;;;;;;10.00;6.67;;;;;18.64;100.00;101274.84;4965549;28;45620;-76
2023/03/21 10:16:52;;;;;;;;;14.33;12.00;;;;;19.11;100.00;101281.88;4965655;28;46224;-76
2023/03/21 10:19:19;;;;;;;;;9.33;6.67;;;;;19.39;100.00;101268.25;4968628;28;45985;-75
2023/03/21 10:21:49;;;;;;;;;12.67;9.33;;;;;19.69;100.00;101267.16;4973631;28;45446;-76
2023/03/21 10:24:26;;;;;;;;;8.67;7.00;;;;;19.74;100.00;101270.16;5002738;28;45636;-76
2023/03/21 10:26:53;;;;;;;;;10.00;7.33;;;;;19.94;100.00;101275.06;4975330;28;45584;-77
2023/03/21 10:29:24;;;;;;;;;10.00;8.00;;;;;20.44;100.00;101277.69;4965580;28;45321;-75
2023/03/21 10:31:51;;;;;;;;;9.00;7.67;;;;;20.55;100.00;101270.72;4974975;28;45365;-77
2023/03/21 10:34:26;;;;;;;;;8.00;6.67;;;;;20.41;100.00;101278.06;4972060;28;45452;-76
2023/03/21 10:36:52;;;;;;;;;7.67;7.67;;;;;20.81;100.00;101259.03;4976791;28;46601;-75
2023/03/21 10:39:31;;;;;;;;;10.33;7.00;;;;;21.09;100.00;101265.34;4964122;28;45500;-76
2023/03/21 10:41:57;;;;;;;;;6.00;6.00;;;;;21.16;99.75;101244.16;4967707;28;45480;-76
2023/03/21 10:44:28;;;;;;;;;10.33;7.00;;;;;21.24;100.00;101241.22;4965697;28;45427;-76
2023/03/21 10:46:57;;;;;;;;;8.67;8.00;;;;;20.98;100.00;101241.06;4965378;28;45599;-76
2023/03/21 10:49:25;;;;;;;;;8.00;8.00;;;;;20.82;100.00;101244.19;4979073;28;45507;-77
2023/03/21 10:51:55;;;;;;;;;14.33;10.67;;;;;20.52;100.00;101268.41;4974488;28;45373;-75
2023/03/21 10:54:25;;;;;;;;;7.00;7.00;;;;;20.90;100.00;101261.41;5001518;28;45446;-74
2023/03/21 10:57:06;;;;;;;;;7.00;5.67;;;;;21.39;100.00;101259.56;4975606;28;46442;-76
2023/03/21 10:59:43;;;;;;;;;8.00;7.00;;;;;21.42;100.00;101259.16;4969324;28;45492;-77
2023/03/21 11:02:24;;;;;;;;;10.33;8.00;;;;;21.43;100.00;101258.94;5007900;28;45294;-75
2023/03/21 11:04:52;;;;;;;;;8.00;6.00;;;;;21.42;100.00;101237.88;4966561;28;45530;-77
2023/03/21 11:07:18;;;;;;;;;10.00;8.33;;;;;21.47;99.08;101262.16;4969740;28;45892;-75
2023/03/21 11:09:56;;;;;;;;;8.67;7.00;;;;;21.41;98.98;101260.19;4965153;28;45783;-76
2023/03/21 11:12:37;;;;;;;;;4.00;4.00;;;;;21.17;100.00;101253.31;4978924;28;45756;-76
2023/03/21 11:15:25;;;;;;;;;6.00;5.00;;;;;21.39;100.00;101254.91;4977226;28;45691;-77
2023/03/21 11:17:50;;;;;;;;;9.33;8.33;;;;;21.68;100.00;101250.94;4969157;28;46530;-77
2023/03/21 11:20:17;;;;;;;;;7.67;7.67;;;;;22.14;99.47;101243.59;4971331;28;45396;-77
2023/03/21 11:22:45;;;;;;;;;5.33;5.33;;;;;22.47;97.18;101231.66;4967526;28;45153;-77
2023/03/21 11:25:26;;;;;;;;;10.00;10.00;;;;;22.37;95.53;101243.16;4969187;28;45471;-77